sensor_id;sensor_type;location;lat;lon;timestamp;P1;durP1;ratioP1;P2;durP2;ratioP2
73642;SDS011;61938;48.652;9.292;2023-05-07T00:01:47;9.40;;;5.40;;
73642;SDS011;61938;48.652;9.292;2023-05-07T00:04:13;9.80;;;5.22;;
73642;SDS011;61938;48.652;9.292;2023-05-07T00:06:38;7.95;;;5.28;;
73642;SDS011;61938;48.652;9.292;2023-05-07T00:09:04;7.95;;;4.65;;
73642;SDS011;61938;48.652;9.292;2023-05-07T00:11:30;8.70;;;4.95;;
73642;SDS011;61938;48.652;9.292;2023-05-07T00:13:56;9.98;;;5.25;;
73642;SDS011;61938;48.652;9.292;2023-05-07T00:16:22;9.52;;;5.85;;
73642;SDS011;61938;48.652;9.292;2023-05-07T00:18:47;9.35;;;5.65;;
73642;SDS011;61938;48.652;9.292;2023-05-07T00:21:13;11.38;;;5.47;;
73642;SDS011;61938;48.652;9.292;2023-05-07T00:23:39;12.27;;;5.57;;
73642;SDS011;61938;48.652;9.292;2023-05-07T00:26:04;8.18;;;5.03;;
73642;SDS011;61938;48.652;9.292;2023-05-07T00:28:29;8.70;;;5.47;;
73642;SDS011;61938;48.652;9.292;2023-05-07T00:30:55;9.27;;;4.85;;
73642;SDS011;61938;48.652;9.292;2023-05-07T00:33:21;7.30;;;5.30;;
73642;SDS011;61938;48.652;9.292;2023-05-07T00:35:47;8.35;;;5.35;;
73642;SDS011;61938;48.652;9.292;2023-05-07T00:38:12;9.13;;;5.05;;
73642;SDS011;61938;48.652;9.292;2023-05-07T00:40:38;7.93;;;5.07;;
73642;SDS011;61938;48.652;9.292;2023-05-07T00:43:04;8.60;;;5.18;;
73642;SDS011;61938;48.652;9.292;2023-05-07T00:45:29;8.82;;;5.72;;
73642;SDS011;61938;48.652;9.292;2023-05-07T00:47:55;8.65;;;5.82;;
73642;SDS011;61938;48.652;9.292;2023-05-07T00:50:23;18.10;;;5.82;;
73642;SDS011;61938;48.652;9.292;2023-05-07T00:52:49;9.73;;;5.40;;
73642;SDS011;61938;48.652;9.292;2023-05-07T00:55:15;9.82;;;5.03;;
73642;SDS011;61938;48.652;9.292;2023-05-07T00:57:40;9.27;;;5.40;;
73642;SDS011;61938;48.652;9.292;2023-05-07T01:00:07;9.88;;;4.88;;
73642;SDS011;61938;48.652;9.292;2023-05-07T01:02:41;8.35;;;4.72;;
73642;SDS011;61938;48.652;9.292;2023-05-07T01:05:07;14.68;;;5.10;;
73642;SDS011;61938;48.652;9.292;2023-05-07T01:07:36;8.85;;;5.10;;
73642;SDS011;61938;48.652;9.292;2023-05-07T01:10:03;10.02;;;4.78;;
73642;SDS011;61938;48.652;9.292;2023-05-07T01:12:30;7.80;;;4.88;;
73642;SDS011;61938;48.652;9.292;2023-05-07T01:14:56;7.47;;;4.88;;
73642;SDS011;61938;48.652;9.292;2023-05-07T01:17:22;9.45;;;5.63;;
73642;SDS011;61938;48.652;9.292;2023-05-07T01:19:48;7.40;;;4.65;;
73642;SDS011;61938;48.652;9.292;2023-05-07T01:22:15;8.07;;;4.70;;
73642;SDS011;61938;48.652;9.292;2023-05-07T01:24:42;7.32;;;4.82;;
73642;SDS011;61938;48.652;9.292;2023-05-07T01:27:07;7.78;;;4.50;;
73642;SDS011;61938;48.652;9.292;2023-05-07T01:29:33;7.82;;;4.28;;
73642;SDS011;61938;48.652;9.292;2023-05-07T01:31:59;7.43;;;4.40;;
73642;SDS011;61938;48.652;9.292;2023-05-07T01:34:27;5.50;;;3.63;;
73642;SDS011;61938;48.652;9.292;2023-05-07T01:36:55;6.50;;;3.65;;
73642;SDS011;61938;48.652;9.292;2023-05-07T01:39:26;7.25;;;3.92;;
73642;SDS011;61938;48.652;9.292;2023-05-07T01:41:54;7.68;;;4.25;;
73642;SDS011;61938;48.652;9.292;2023-05-07T01:44:21;8.02;;;4.30;;
73642;SDS011;61938;48.652;9.292;2023-05-07T01:46:47;6.68;;;4.38;;
73642;SDS011;61938;48.652;9.292;2023-05-07T01:49:14;8.85;;;4.32;;
73642;SDS011;61938;48.652;9.292;2023-05-07T01:51:40;5.88;;;4.28;;
73642;SDS011;61938;48.652;9.292;2023-05-07T01:54:06;7.22;;;4.22;;
73642;SDS011;61938;48.652;9.292;2023-05-07T01:56:33;9.00;;;4.53;;
73642;SDS011;61938;48.652;9.292;2023-05-07T01:58:58;9.80;;;5.03;;
73642;SDS011;61938;48.652;9.292;2023-05-07T02:01:24;8.07;;;4.38;;
73642;SDS011;61938;48.652;9.292;2023-05-07T02:03:50;6.63;;;4.32;;
73642;SDS011;61938;48.652;9.292;2023-05-07T02:06:15;6.65;;;4.93;;
73642;SDS011;61938;48.652;9.292;2023-05-07T02:08:41;12.15;;;5.50;;
73642;SDS011;61938;48.652;9.292;2023-05-07T02:11:06;10.15;;;5.85;;
73642;SDS011;61938;48.652;9.292;2023-05-07T02:13:32;9.98;;;5.95;;
73642;SDS011;61938;48.652;9.292;2023-05-07T02:15:59;9.40;;;5.70;;
73642;SDS011;61938;48.652;9.292;2023-05-07T02:18:25;12.75;;;5.88;;
73642;SDS011;61938;48.652;9.292;2023-05-07T02:20:50;14.95;;;6.03;;
73642;SDS011;61938;48.652;9.292;2023-05-07T02:23:16;11.02;;;6.15;;
73642;SDS011;61938;48.652;9.292;2023-05-07T02:25:41;12.55;;;6.65;;
73642;SDS011;61938;48.652;9.292;2023-05-07T02:28:07;12.07;;;6.22;;
73642;SDS011;61938;48.652;9.292;2023-05-07T02:30:32;13.43;;;5.80;;
73642;SDS011;61938;48.652;9.292;2023-05-07T02:32:58;13.80;;;5.30;;
73642;SDS011;61938;48.652;9.292;2023-05-07T02:35:24;9.07;;;5.75;;
73642;SDS011;61938;48.652;9.292;2023-05-07T02:37:50;10.00;;;6.40;;
73642;SDS011;61938;48.652;9.292;2023-05-07T02:40:15;10.35;;;5.47;;
73642;SDS011;61938;48.652;9.292;2023-05-07T02:42:41;9.00;;;5.43;;
73642;SDS011;61938;48.652;9.292;2023-05-07T02:45:06;9.68;;;5.35;;
73642;SDS011;61938;48.652;9.292;2023-05-07T02:47:32;13.27;;;5.95;;
73642;SDS011;61938;48.652;9.292;2023-05-07T02:49:58;9.93;;;5.05;;
73642;SDS011;61938;48.652;9.292;2023-05-07T02:52:23;6.60;;;4.57;;
73642;SDS011;61938;48.652;9.292;2023-05-07T02:54:49;10.00;;;5.40;;
73642;SDS011;61938;48.652;9.292;2023-05-07T02:57:14;10.68;;;4.55;;
73642;SDS011;61938;48.652;9.292;2023-05-07T02:59:41;7.80;;;5.15;;
73642;SDS011;61938;48.652;9.292;2023-05-07T03:02:07;8.52;;;4.68;;
73642;SDS011;61938;48.652;9.292;2023-05-07T03:04:32;9.55;;;4.93;;
73642;SDS011;61938;48.652;9.292;2023-05-07T03:06:58;7.15;;;4.20;;
73642;SDS011;61938;48.652;9.292;2023-05-07T03:09:23;7.20;;;4.95;;
73642;SDS011;61938;48.652;9.292;2023-05-07T03:11:49;6.50;;;4.68;;
73642;SDS011;61938;48.652;9.292;2023-05-07T03:14:14;9.38;;;4.40;;
73642;SDS011;61938;48.652;9.292;2023-05-07T03:16:40;11.25;;;4.45;;
73642;SDS011;61938;48.652;9.292;2023-05-07T03:19:05;9.02;;;4.55;;
73642;SDS011;61938;48.652;9.292;2023-05-07T03:21:31;8.48;;;4.72;;
73642;SDS011;61938;48.652;9.292;2023-05-07T03:23:58;16.95;;;5.20;;
73642;SDS011;61938;48.652;9.292;2023-05-07T03:26:24;9.88;;;5.03;;
73642;SDS011;61938;48.652;9.292;2023-05-07T03:28:50;6.57;;;4.50;;
73642;SDS011;61938;48.652;9.292;2023-05-07T03:31:15;6.35;;;4.38;;
73642;SDS011;61938;48.652;9.292;2023-05-07T03:33:54;8.38;;;4.80;;
73642;SDS011;61938;48.652;9.292;2023-05-07T03:36:21;6.55;;;4.72;;
73642;SDS011;61938;48.652;9.292;2023-05-07T03:38:48;9.23;;;5.38;;
73642;SDS011;61938;48.652;9.292;2023-05-07T03:41:13;8.02;;;4.95;;
73642;SDS011;61938;48.652;9.292;2023-05-07T03:43:39;9.13;;;5.18;;
73642;SDS011;61938;48.652;9.292;2023-05-07T03:46:05;9.02;;;5.32;;
73642;SDS011;61938;48.652;9.292;2023-05-07T03:48:30;8.90;;;6.00;;
73642;SDS011;61938;48.652;9.292;2023-05-07T03:50:56;11.57;;;5.68;;
73642;SDS011;61938;48.652;9.292;2023-05-07T03:53:22;9.93;;;5.60;;
73642;SDS011;61938;48.652;9.292;2023-05-07T03:55:48;10.18;;;5.10;;
73642;SDS011;61938;48.652;9.292;2023-05-07T03:58:14;12.35;;;5.25;;
73642;SDS011;61938;48.652;9.292;2023-05-07T04:00:40;9.50;;;5.25;;
73642;SDS011;61938;48.652;9.292;2023-05-07T04:03:06;8.20;;;5.22;;
73642;SDS011;61938;48.652;9.292;2023-05-07T04:05:31;8.48;;;5.50;;
73642;SDS011;61938;48.652;9.292;2023-05-07T04:08:00;10.38;;;5.32;;
73642;SDS011;61938;48.652;9.292;2023-05-07T04:10:27;15.63;;;5.43;;
73642;SDS011;61938;48.652;9.292;2023-05-07T04:12:54;9.70;;;5.35;;
73642;SDS011;61938;48.652;9.292;2023-05-07T04:15:19;9.60;;;5.70;;
73642;SDS011;61938;48.652;9.292;2023-05-07T04:17:45;11.25;;;4.85;;
73642;SDS011;61938;48.652;9.292;2023-05-07T04:20:13;8.25;;;5.20;;
73642;SDS011;61938;48.652;9.292;2023-05-07T04:22:40;10.30;;;5.95;;
73642;SDS011;61938;48.652;9.292;2023-05-07T04:25:06;13.57;;;5.80;;
73642;SDS011;61938;48.652;9.292;2023-05-07T04:27:34;10.20;;;5.85;;
73642;SDS011;61938;48.652;9.292;2023-05-07T04:29:59;14.23;;;5.50;;
73642;SDS011;61938;48.652;9.292;2023-05-07T04:32:25;11.70;;;5.43;;
73642;SDS011;61938;48.652;9.292;2023-05-07T04:34:51;11.63;;;6.05;;
73642;SDS011;61938;48.652;9.292;2023-05-07T04:37:17;11.43;;;5.32;;
73642;SDS011;61938;48.652;9.292;2023-05-07T04:39:42;9.73;;;5.47;;
73642;SDS011;61938;48.652;9.292;2023-05-07T04:42:08;12.18;;;5.18;;
73642;SDS011;61938;48.652;9.292;2023-05-07T04:44:34;10.23;;;5.85;;
73642;SDS011;61938;48.652;9.292;2023-05-07T04:47:01;12.38;;;5.65;;
73642;SDS011;61938;48.652;9.292;2023-05-07T04:49:27;8.80;;;5.78;;
73642;SDS011;61938;48.652;9.292;2023-05-07T04:51:52;7.55;;;5.60;;
73642;SDS011;61938;48.652;9.292;2023-05-07T04:54:18;10.05;;;5.57;;
73642;SDS011;61938;48.652;9.292;2023-05-07T04:56:43;7.78;;;5.10;;
73642;SDS011;61938;48.652;9.292;2023-05-07T04:59:09;10.88;;;6.20;;
73642;SDS011;61938;48.652;9.292;2023-05-07T05:01:34;8.52;;;6.10;;
73642;SDS011;61938;48.652;9.292;2023-05-07T05:04:00;9.88;;;6.03;;
73642;SDS011;61938;48.652;9.292;2023-05-07T05:06:26;8.50;;;6.00;;
73642;SDS011;61938;48.652;9.292;2023-05-07T05:08:51;11.02;;;5.88;;
73642;SDS011;61938;48.652;9.292;2023-05-07T05:11:17;9.25;;;5.30;;
73642;SDS011;61938;48.652;9.292;2023-05-07T05:13:42;9.20;;;6.22;;
73642;SDS011;61938;48.652;9.292;2023-05-07T05:16:08;9.88;;;5.80;;
73642;SDS011;61938;48.652;9.292;2023-05-07T05:18:33;13.48;;;6.40;;
73642;SDS011;61938;48.652;9.292;2023-05-07T05:20:59;16.02;;;6.22;;
73642;SDS011;61938;48.652;9.292;2023-05-07T05:23:25;17.55;;;6.72;;
73642;SDS011;61938;48.652;9.292;2023-05-07T05:25:54;14.68;;;6.68;;
73642;SDS011;61938;48.652;9.292;2023-05-07T05:28:21;12.83;;;7.03;;
73642;SDS011;61938;48.652;9.292;2023-05-07T05:30:46;9.07;;;6.22;;
73642;SDS011;61938;48.652;9.292;2023-05-07T05:33:12;7.88;;;5.78;;
73642;SDS011;61938;48.652;9.292;2023-05-07T05:35:37;11.13;;;6.60;;
73642;SDS011;61938;48.652;9.292;2023-05-07T05:38:03;12.02;;;6.45;;
73642;SDS011;61938;48.652;9.292;2023-05-07T05:40:28;8.85;;;6.03;;
73642;SDS011;61938;48.652;9.292;2023-05-07T05:42:54;13.27;;;6.35;;
73642;SDS011;61938;48.652;9.292;2023-05-07T05:45:20;11.77;;;5.93;;
73642;SDS011;61938;48.652;9.292;2023-05-07T05:47:45;9.00;;;6.13;;
73642;SDS011;61938;48.652;9.292;2023-05-07T05:50:11;14.65;;;6.57;;
73642;SDS011;61938;48.652;9.292;2023-05-07T05:52:36;13.27;;;5.63;;
73642;SDS011;61938;48.652;9.292;2023-05-07T05:55:03;9.90;;;5.75;;
73642;SDS011;61938;48.652;9.292;2023-05-07T05:57:28;10.15;;;5.68;;
73642;SDS011;61938;48.652;9.292;2023-05-07T05:59:54;8.55;;;5.47;;
73642;SDS011;61938;48.652;9.292;2023-05-07T06:02:20;9.00;;;5.32;;
73642;SDS011;61938;48.652;9.292;2023-05-07T06:04:45;8.77;;;5.57;;
73642;SDS011;61938;48.652;9.292;2023-05-07T06:07:11;8.07;;;5.53;;
73642;SDS011;61938;48.652;9.292;2023-05-07T06:09:36;9.77;;;5.63;;
73642;SDS011;61938;48.652;9.292;2023-05-07T06:12:02;9.77;;;5.03;;
73642;SDS011;61938;48.652;9.292;2023-05-07T06:14:27;7.95;;;5.40;;
73642;SDS011;61938;48.652;9.292;2023-05-07T06:16:53;9.20;;;5.50;;
73642;SDS011;61938;48.652;9.292;2023-05-07T06:19:18;8.75;;;6.15;;
73642;SDS011;61938;48.652;9.292;2023-05-07T06:21:48;9.95;;;5.40;;
73642;SDS011;61938;48.652;9.292;2023-05-07T06:24:13;11.05;;;5.43;;
73642;SDS011;61938;48.652;9.292;2023-05-07T06:26:48;10.18;;;5.38;;
73642;SDS011;61938;48.652;9.292;2023-05-07T06:29:16;8.05;;;5.30;;
73642;SDS011;61938;48.652;9.292;2023-05-07T06:31:42;8.48;;;5.75;;
73642;SDS011;61938;48.652;9.292;2023-05-07T06:34:07;12.55;;;6.50;;
73642;SDS011;61938;48.652;9.292;2023-05-07T06:36:33;9.52;;;6.35;;
73642;SDS011;61938;48.652;9.292;2023-05-07T06:38:59;9.68;;;6.13;;
73642;SDS011;61938;48.652;9.292;2023-05-07T06:41:58;8.32;;;6.20;;
73642;SDS011;61938;48.652;9.292;2023-05-07T06:44:22;10.13;;;5.68;;
73642;SDS011;61938;48.652;9.292;2023-05-07T06:46:48;7.50;;;5.82;;
73642;SDS011;61938;48.652;9.292;2023-05-07T06:49:19;9.52;;;6.05;;
73642;SDS011;61938;48.652;9.292;2023-05-07T06:51:45;7.68;;;5.25;;
73642;SDS011;61938;48.652;9.292;2023-05-07T06:54:11;8.75;;;5.85;;
73642;SDS011;61938;48.652;9.292;2023-05-07T06:56:36;10.13;;;5.32;;
73642;SDS011;61938;48.652;9.292;2023-05-07T06:59:02;9.63;;;5.18;;
73642;SDS011;61938;48.652;9.292;2023-05-07T07:01:28;7.13;;;5.57;;
73642;SDS011;61938;48.652;9.292;2023-05-07T07:03:54;7.00;;;5.13;;
73642;SDS011;61938;48.652;9.292;2023-05-07T07:06:33;15.00;;;6.18;;
73642;SDS011;61938;48.652;9.292;2023-05-07T07:09:04;11.95;;;5.50;;
73642;SDS011;61938;48.652;9.292;2023-05-07T07:16:59;8.73;;;5.20;;
73642;SDS011;61938;48.652;9.292;2023-05-07T07:19:34;6.43;;;5.15;;
73642;SDS011;61938;48.652;9.292;2023-05-07T07:22:06;6.78;;;4.88;;
73642;SDS011;61938;48.652;9.292;2023-05-07T07:24:47;8.80;;;5.40;;
73642;SDS011;61938;48.652;9.292;2023-05-07T07:27:12;6.15;;;4.72;;
73642;SDS011;61938;48.652;9.292;2023-05-07T07:29:38;7.78;;;4.68;;
73642;SDS011;61938;48.652;9.292;2023-05-07T07:32:03;10.40;;;4.68;;
73642;SDS011;61938;48.652;9.292;2023-05-07T07:34:29;10.13;;;5.10;;
73642;SDS011;61938;48.652;9.292;2023-05-07T07:36:55;7.45;;;4.80;;
73642;SDS011;61938;48.652;9.292;2023-05-07T07:39:21;11.70;;;5.32;;
73642;SDS011;61938;48.652;9.292;2023-05-07T07:41:46;7.38;;;4.50;;
73642;SDS011;61938;48.652;9.292;2023-05-07T07:44:12;11.55;;;4.97;;
73642;SDS011;61938;48.652;9.292;2023-05-07T07:46:38;7.20;;;4.80;;
73642;SDS011;61938;48.652;9.292;2023-05-07T07:49:03;7.32;;;4.43;;
73642;SDS011;61938;48.652;9.292;2023-05-07T07:51:29;8.88;;;4.30;;
73642;SDS011;61938;48.652;9.292;2023-05-07T07:53:55;5.88;;;4.25;;
73642;SDS011;61938;48.652;9.292;2023-05-07T07:56:22;6.15;;;4.13;;
73642;SDS011;61938;48.652;9.292;2023-05-07T07:58:48;5.43;;;4.10;;
73642;SDS011;61938;48.652;9.292;2023-05-07T08:01:13;7.35;;;3.97;;
73642;SDS011;61938;48.652;9.292;2023-05-07T08:03:39;7.85;;;4.25;;
73642;SDS011;61938;48.652;9.292;2023-05-07T08:06:05;7.80;;;4.72;;
73642;SDS011;61938;48.652;9.292;2023-05-07T08:08:31;13.77;;;4.28;;
73642;SDS011;61938;48.652;9.292;2023-05-07T08:10:56;6.00;;;4.18;;
73642;SDS011;61938;48.652;9.292;2023-05-07T08:13:22;5.85;;;4.18;;
73642;SDS011;61938;48.652;9.292;2023-05-07T08:15:47;7.80;;;4.30;;
73642;SDS011;61938;48.652;9.292;2023-05-07T08:18:13;6.13;;;4.43;;
73642;SDS011;61938;48.652;9.292;2023-05-07T08:20:38;8.43;;;4.20;;
73642;SDS011;61938;48.652;9.292;2023-05-07T08:23:04;15.65;;;4.38;;
73642;SDS011;61938;48.652;9.292;2023-05-07T08:25:35;7.18;;;4.40;;
73642;SDS011;61938;48.652;9.292;2023-05-07T08:28:08;6.50;;;4.47;;
73642;SDS011;61938;48.652;9.292;2023-05-07T08:30:51;5.47;;;4.17;;
73642;SDS011;61938;48.652;9.292;2023-05-07T08:33:18;10.05;;;3.80;;
73642;SDS011;61938;48.652;9.292;2023-05-07T08:35:43;5.47;;;4.05;;
73642;SDS011;61938;48.652;9.292;2023-05-07T08:38:09;9.57;;;5.05;;
73642;SDS011;61938;48.652;9.292;2023-05-07T08:40:38;6.70;;;3.85;;
73642;SDS011;61938;48.652;9.292;2023-05-07T08:43:05;12.15;;;3.92;;
73642;SDS011;61938;48.652;9.292;2023-05-07T08:45:32;5.13;;;3.38;;
73642;SDS011;61938;48.652;9.292;2023-05-07T08:48:05;4.82;;;3.40;;
73642;SDS011;61938;48.652;9.292;2023-05-07T08:50:50;7.57;;;3.42;;
73642;SDS011;61938;48.652;9.292;2023-05-07T08:53:49;5.80;;;3.50;;
73642;SDS011;61938;48.652;9.292;2023-05-07T08:57:05;4.68;;;3.33;;
73642;SDS011;61938;48.652;9.292;2023-05-07T08:59:51;6.80;;;3.35;;
73642;SDS011;61938;48.652;9.292;2023-05-07T09:05:52;6.30;;;3.65;;
73642;SDS011;61938;48.652;9.292;2023-05-07T09:08:31;6.07;;;2.80;;
73642;SDS011;61938;48.652;9.292;2023-05-07T09:14:34;3.83;;;2.70;;
73642;SDS011;61938;48.652;9.292;2023-05-07T09:17:17;6.80;;;2.90;;
73642;SDS011;61938;48.652;9.292;2023-05-07T09:20:02;4.03;;;2.78;;
73642;SDS011;61938;48.652;9.292;2023-05-07T09:22:38;3.60;;;2.67;;
73642;SDS011;61938;48.652;9.292;2023-05-07T09:31:41;5.65;;;2.45;;
73642;SDS011;61938;48.652;9.292;2023-05-07T09:34:42;8.13;;;2.70;;
73642;SDS011;61938;48.652;9.292;2023-05-07T09:37:41;5.55;;;2.95;;
73642;SDS011;61938;48.652;9.292;2023-05-07T09:46:57;6.15;;;2.80;;
73642;SDS011;61938;48.652;9.292;2023-05-07T09:49:45;5.18;;;2.60;;
73642;SDS011;61938;48.652;9.292;2023-05-07T09:52:50;7.05;;;3.20;;
73642;SDS011;61938;48.652;9.292;2023-05-07T09:55:28;6.20;;;2.83;;
73642;SDS011;61938;48.652;9.292;2023-05-07T09:58:00;3.92;;;2.40;;
73642;SDS011;61938;48.652;9.292;2023-05-07T10:03:33;7.57;;;2.95;;
73642;SDS011;61938;48.652;9.292;2023-05-07T10:06:14;3.60;;;2.58;;
73642;SDS011;61938;48.652;9.292;2023-05-07T10:11:55;6.20;;;2.63;;
73642;SDS011;61938;48.652;9.292;2023-05-07T10:14:48;6.88;;;3.05;;
73642;SDS011;61938;48.652;9.292;2023-05-07T10:20:48;3.35;;;2.75;;
73642;SDS011;61938;48.652;9.292;2023-05-07T10:23:17;4.82;;;3.20;;
73642;SDS011;61938;48.652;9.292;2023-05-07T10:26:03;5.47;;;3.00;;
73642;SDS011;61938;48.652;9.292;2023-05-07T10:28:43;6.28;;;2.72;;
73642;SDS011;61938;48.652;9.292;2023-05-07T10:33:59;8.10;;;2.92;;
73642;SDS011;61938;48.652;9.292;2023-05-07T10:36:26;2.40;;;2.17;;
73642;SDS011;61938;48.652;9.292;2023-05-07T10:38:52;3.83;;;2.75;;
73642;SDS011;61938;48.652;9.292;2023-05-07T10:41:18;3.80;;;2.40;;
73642;SDS011;61938;48.652;9.292;2023-05-07T10:43:45;4.15;;;2.88;;
73642;SDS011;61938;48.652;9.292;2023-05-07T10:46:14;8.25;;;2.53;;
73642;SDS011;61938;48.652;9.292;2023-05-07T10:51:25;7.43;;;2.70;;
73642;SDS011;61938;48.652;9.292;2023-05-07T10:56:36;7.90;;;2.78;;
73642;SDS011;61938;48.652;9.292;2023-05-07T11:01:58;5.70;;;2.60;;
73642;SDS011;61938;48.652;9.292;2023-05-07T11:04:27;4.28;;;2.72;;
73642;SDS011;61938;48.652;9.292;2023-05-07T11:12:20;9.35;;;3.22;;
73642;SDS011;61938;48.652;9.292;2023-05-07T11:17:32;6.60;;;2.75;;
73642;SDS011;61938;48.652;9.292;2023-05-07T11:20:00;6.05;;;2.63;;
73642;SDS011;61938;48.652;9.292;2023-05-07T11:24:55;3.42;;;2.10;;
73642;SDS011;61938;48.652;9.292;2023-05-07T11:27:25;5.70;;;2.63;;
73642;SDS011;61938;48.652;9.292;2023-05-07T11:29:51;5.20;;;2.60;;
73642;SDS011;61938;48.652;9.292;2023-05-07T11:32:24;2.80;;;2.13;;
73642;SDS011;61938;48.652;9.292;2023-05-07T11:34:56;4.28;;;2.50;;
73642;SDS011;61938;48.652;9.292;2023-05-07T11:37:23;3.83;;;2.30;;
73642;SDS011;61938;48.652;9.292;2023-05-07T11:39:50;3.83;;;2.17;;
73642;SDS011;61938;48.652;9.292;2023-05-07T11:42:30;3.38;;;2.30;;
73642;SDS011;61938;48.652;9.292;2023-05-07T11:44:57;5.35;;;2.05;;
73642;SDS011;61938;48.652;9.292;2023-05-07T11:47:23;2.97;;;2.28;;
73642;SDS011;61938;48.652;9.292;2023-05-07T11:49:51;2.88;;;1.98;;
73642;SDS011;61938;48.652;9.292;2023-05-07T11:52:18;2.85;;;2.10;;
73642;SDS011;61938;48.652;9.292;2023-05-07T11:54:51;3.10;;;1.95;;
73642;SDS011;61938;48.652;9.292;2023-05-07T11:57:22;5.55;;;2.22;;
73642;SDS011;61938;48.652;9.292;2023-05-07T11:59:54;3.70;;;2.25;;
73642;SDS011;61938;48.652;9.292;2023-05-07T12:02:24;7.55;;;2.20;;
73642;SDS011;61938;48.652;9.292;2023-05-07T12:04:53;7.68;;;2.35;;
73642;SDS011;61938;48.652;9.292;2023-05-07T12:07:19;5.78;;;2.33;;
73642;SDS011;61938;48.652;9.292;2023-05-07T12:09:45;4.55;;;2.13;;
73642;SDS011;61938;48.652;9.292;2023-05-07T12:12:12;11.95;;;3.05;;
73642;SDS011;61938;48.652;9.292;2023-05-07T12:14:43;7.93;;;2.50;;
73642;SDS011;61938;48.652;9.292;2023-05-07T12:19:54;6.05;;;1.70;;
73642;SDS011;61938;48.652;9.292;2023-05-07T12:22:20;4.75;;;2.00;;
73642;SDS011;61938;48.652;9.292;2023-05-07T12:24:47;9.32;;;2.15;;
73642;SDS011;61938;48.652;9.292;2023-05-07T12:27:14;3.10;;;1.30;;
73642;SDS011;61938;48.652;9.292;2023-05-07T12:29:43;2.28;;;1.60;;
73642;SDS011;61938;48.652;9.292;2023-05-07T12:34:54;3.65;;;1.63;;
73642;SDS011;61938;48.652;9.292;2023-05-07T12:40:41;7.28;;;2.88;;
73642;SDS011;61938;48.652;9.292;2023-05-07T12:43:15;4.60;;;2.90;;
73642;SDS011;61938;48.652;9.292;2023-05-07T12:45:44;3.15;;;2.80;;
73642;SDS011;61938;48.652;9.292;2023-05-07T12:51:30;4.00;;;3.20;;
73642;SDS011;61938;48.652;9.292;2023-05-07T12:53:56;4.13;;;3.00;;
73642;SDS011;61938;48.652;9.292;2023-05-07T12:56:22;7.70;;;3.38;;
73642;SDS011;61938;48.652;9.292;2023-05-07T12:59:08;4.97;;;3.30;;
73642;SDS011;61938;48.652;9.292;2023-05-07T13:01:33;13.15;;;3.97;;
73642;SDS011;61938;48.652;9.292;2023-05-07T13:04:02;12.88;;;3.63;;
73642;SDS011;61938;48.652;9.292;2023-05-07T13:06:31;6.47;;;2.83;;
73642;SDS011;61938;48.652;9.292;2023-05-07T13:09:13;4.38;;;2.50;;
73642;SDS011;61938;48.652;9.292;2023-05-07T13:11:38;5.13;;;2.20;;
73642;SDS011;61938;48.652;9.292;2023-05-07T13:14:10;4.97;;;2.35;;
73642;SDS011;61938;48.652;9.292;2023-05-07T13:19:25;4.97;;;1.65;;
73642;SDS011;61938;48.652;9.292;2023-05-07T13:21:59;5.82;;;1.90;;
73642;SDS011;61938;48.652;9.292;2023-05-07T13:24:25;2.72;;;1.80;;
73642;SDS011;61938;48.652;9.292;2023-05-07T13:26:50;11.10;;;1.67;;
73642;SDS011;61938;48.652;9.292;2023-05-07T13:29:16;4.13;;;2.20;;
73642;SDS011;61938;48.652;9.292;2023-05-07T13:31:42;5.72;;;1.80;;
73642;SDS011;61938;48.652;9.292;2023-05-07T13:34:09;5.10;;;2.45;;
73642;SDS011;61938;48.652;9.292;2023-05-07T13:36:35;4.57;;;1.95;;
73642;SDS011;61938;48.652;9.292;2023-05-07T13:39:04;9.55;;;1.83;;
73642;SDS011;61938;48.652;9.292;2023-05-07T13:41:31;7.68;;;2.55;;
73642;SDS011;61938;48.652;9.292;2023-05-07T13:43:56;10.15;;;2.72;;
73642;SDS011;61938;48.652;9.292;2023-05-07T13:46:22;8.13;;;3.40;;
73642;SDS011;61938;48.652;9.292;2023-05-07T13:48:49;11.25;;;2.83;;
73642;SDS011;61938;48.652;9.292;2023-05-07T13:51:16;9.25;;;2.97;;
73642;SDS011;61938;48.652;9.292;2023-05-07T13:53:41;8.25;;;2.75;;
73642;SDS011;61938;48.652;9.292;2023-05-07T13:56:12;8.38;;;3.20;;
73642;SDS011;61938;48.652;9.292;2023-05-07T13:58:41;7.07;;;2.75;;
73642;SDS011;61938;48.652;9.292;2023-05-07T14:01:09;7.53;;;2.80;;
73642;SDS011;61938;48.652;9.292;2023-05-07T14:03:35;7.28;;;2.78;;
73642;SDS011;61938;48.652;9.292;2023-05-07T14:06:06;7.85;;;3.13;;
73642;SDS011;61938;48.652;9.292;2023-05-07T14:08:34;15.52;;;5.93;;
73642;SDS011;61938;48.652;9.292;2023-05-07T14:10:59;11.15;;;4.38;;
73642;SDS011;61938;48.652;9.292;2023-05-07T14:13:25;5.32;;;2.80;;
73642;SDS011;61938;48.652;9.292;2023-05-07T14:15:51;5.65;;;2.80;;
73642;SDS011;61938;48.652;9.292;2023-05-07T14:18:17;4.63;;;2.60;;
73642;SDS011;61938;48.652;9.292;2023-05-07T14:20:42;7.45;;;3.30;;
73642;SDS011;61938;48.652;9.292;2023-05-07T14:23:08;6.93;;;3.60;;
73642;SDS011;61938;48.652;9.292;2023-05-07T14:25:34;5.43;;;2.97;;
73642;SDS011;61938;48.652;9.292;2023-05-07T14:28:00;7.65;;;2.88;;
73642;SDS011;61938;48.652;9.292;2023-05-07T14:30:25;5.43;;;2.70;;
73642;SDS011;61938;48.652;9.292;2023-05-07T14:32:51;3.67;;;2.30;;
73642;SDS011;61938;48.652;9.292;2023-05-07T14:35:16;5.70;;;2.70;;
73642;SDS011;61938;48.652;9.292;2023-05-07T14:37:42;5.95;;;3.05;;
73642;SDS011;61938;48.652;9.292;2023-05-07T14:40:08;14.77;;;4.43;;
73642;SDS011;61938;48.652;9.292;2023-05-07T14:42:34;12.65;;;3.70;;
73642;SDS011;61938;48.652;9.292;2023-05-07T14:45:00;15.85;;;4.50;;
73642;SDS011;61938;48.652;9.292;2023-05-07T14:47:25;11.27;;;3.67;;
73642;SDS011;61938;48.652;9.292;2023-05-07T14:49:51;8.95;;;4.25;;
73642;SDS011;61938;48.652;9.292;2023-05-07T14:52:17;10.05;;;5.03;;
73642;SDS011;61938;48.652;9.292;2023-05-07T14:54:43;12.52;;;5.15;;
73642;SDS011;61938;48.652;9.292;2023-05-07T14:57:09;18.00;;;7.18;;
73642;SDS011;61938;48.652;9.292;2023-05-07T14:59:38;8.80;;;4.32;;
73642;SDS011;61938;48.652;9.292;2023-05-07T15:02:03;10.10;;;5.10;;
73642;SDS011;61938;48.652;9.292;2023-05-07T15:04:30;15.40;;;5.47;;
73642;SDS011;61938;48.652;9.292;2023-05-07T15:06:56;9.20;;;5.25;;
73642;SDS011;61938;48.652;9.292;2023-05-07T15:09:21;8.32;;;4.18;;
73642;SDS011;61938;48.652;9.292;2023-05-07T15:11:47;9.98;;;4.35;;
73642;SDS011;61938;48.652;9.292;2023-05-07T15:14:12;7.93;;;4.18;;
73642;SDS011;61938;48.652;9.292;2023-05-07T15:16:38;16.80;;;7.10;;
73642;SDS011;61938;48.652;9.292;2023-05-07T15:19:03;11.23;;;5.03;;
73642;SDS011;61938;48.652;9.292;2023-05-07T15:21:29;7.00;;;4.10;;
73642;SDS011;61938;48.652;9.292;2023-05-07T15:23:57;6.70;;;4.05;;
73642;SDS011;61938;48.652;9.292;2023-05-07T15:26:23;7.65;;;3.90;;
73642;SDS011;61938;48.652;9.292;2023-05-07T15:28:49;7.80;;;4.22;;
73642;SDS011;61938;48.652;9.292;2023-05-07T15:31:15;6.85;;;3.75;;
73642;SDS011;61938;48.652;9.292;2023-05-07T15:33:41;5.22;;;3.10;;
73642;SDS011;61938;48.652;9.292;2023-05-07T15:36:07;8.85;;;3.60;;
73642;SDS011;61938;48.652;9.292;2023-05-07T15:38:33;11.13;;;3.60;;
73642;SDS011;61938;48.652;9.292;2023-05-07T15:40:59;7.75;;;3.88;;
73642;SDS011;61938;48.652;9.292;2023-05-07T15:43:25;6.95;;;3.90;;
73642;SDS011;61938;48.652;9.292;2023-05-07T15:45:50;8.30;;;4.13;;
73642;SDS011;61938;48.652;9.292;2023-05-07T15:48:16;5.45;;;3.28;;
73642;SDS011;61938;48.652;9.292;2023-05-07T15:50:41;4.82;;;3.50;;
73642;SDS011;61938;48.652;9.292;2023-05-07T15:53:07;7.10;;;3.45;;
73642;SDS011;61938;48.652;9.292;2023-05-07T15:55:33;7.45;;;3.30;;
73642;SDS011;61938;48.652;9.292;2023-05-07T15:57:59;5.45;;;3.22;;
73642;SDS011;61938;48.652;9.292;2023-05-07T16:00:25;7.40;;;3.58;;
73642;SDS011;61938;48.652;9.292;2023-05-07T16:02:52;7.35;;;3.28;;